Time;durP1;ratioP1;P1;durP2;ratioP2;P2;SDS_P1;SDS_P2;PMS_P1;PMS_P2;Temp;Humidity;BMP_temperature;BMP_pressure;BME280_temperature;BME280_humidity;BME280_pressure;Samples;Min_cycle;Max_cycle;Signal;HPM_P1;HPM_P2
2023/10/15 00:00:24;;;;;;;1.95;0.70;;;7.90;99.90;;;;;;5106593;27;20052;-35
2023/10/15 00:02:51;;;;;;;5.13;1.60;;;7.90;99.90;;;;;;5041311;28;20029;-36
2023/10/15 00:05:20;;;;;;;5.07;1.00;;;7.90;99.90;;;;;;5098781;27;20023;-36
2023/10/15 00:07:49;;;;;;;3.25;1.13;;;7.90;99.90;;;;;;5043654;27;20093;-35
2023/10/15 00:10:20;;;;;;;1.65;0.70;;;7.90;99.90;;;;;;5089958;27;20925;-36
2023/10/15 00:12:48;;;;;;;2.40;0.90;;;7.80;99.90;;;;;;5051727;27;20022;-35
2023/10/15 00:15:15;;;;;;;1.73;0.70;;;7.90;99.90;;;;;;5082903;27;20027;-35
2023/10/15 00:17:42;;;;;;;0.88;0.55;;;7.90;99.90;;;;;;5061483;27;20078;-34
2023/10/15 00:20:13;;;;;;;1.83;0.70;;;7.90;99.90;;;;;;5070338;27;20030;-35
2023/10/15 00:22:42;;;;;;;1.20;0.70;;;7.90;99.90;;;;;;5071268;27;20036;-35
2023/10/15 00:25:12;;;;;;;2.63;1.25;;;8.00;99.90;;;;;;5061865;27;20022;-34
2023/10/15 00:27:38;;;;;;;1.65;0.80;;;8.00;99.90;;;;;;5079146;27;20044;-35
2023/10/15 00:30:06;;;;;;;2.28;0.85;;;8.00;99.90;;;;;;5052870;27;20029;-35
2023/10/15 00:32:32;;;;;;;2.67;1.00;;;8.00;99.90;;;;;;5091139;27;20108;-34
2023/10/15 00:34:58;;;;;;;3.78;1.05;;;7.90;99.90;;;;;;5049048;27;20126;-35
2023/10/15 00:37:24;;;;;;;2.13;0.80;;;8.00;99.90;;;;;;5102430;27;20127;-34
2023/10/15 00:39:50;;;;;;;2.65;0.90;;;7.90;99.90;;;;;;5050447;27;20022;-35
2023/10/15 00:42:18;;;;;;;1.17;0.80;;;7.90;99.90;;;;;;5102231;27;20029;-35
2023/10/15 00:44:43;;;;;;;3.97;1.20;;;8.00;99.90;;;;;;5043839;28;20017;-35
2023/10/15 00:47:15;;;;;;;1.50;0.80;;;7.90;99.90;;;;;;5108714;27;20037;-44
2023/10/15 00:49:43;;;;;;;3.25;0.65;;;7.90;99.90;;;;;;5044225;28;20039;-36
2023/10/15 00:52:10;;;;;;;1.67;0.70;;;7.90;99.90;;;;;;5072656;27;20038;-35
2023/10/15 00:54:38;;;;;;;2.63;0.80;;;8.00;99.90;;;;;;5122913;27;20036;-36
2023/10/15 00:57:25;;;;;;;2.17;0.80;;;8.00;99.90;;;;;;5104872;27;20454;-41
2023/10/15 00:59:54;;;;;;;1.70;0.80;;;8.00;99.90;;;;;;5023423;28;20047;-34
2023/10/15 01:02:23;;;;;;;3.95;0.90;;;8.00;99.90;;;;;;5106189;27;20058;-34
2023/10/15 01:04:51;;;;;;;1.40;0.70;;;8.10;99.90;;;;;;5043517;28;20136;-34
2023/10/15 01:07:41;;;;;;;1.05;0.68;;;8.10;99.90;;;;;;5098600;27;20561;-35
2023/10/15 01:10:08;;;;;;;0.80;0.55;;;8.10;99.90;;;;;;5023451;28;20073;-34
2023/10/15 01:12:33;;;;;;;1.33;0.65;;;8.10;99.90;;;;;;5101265;27;20023;-34
2023/10/15 01:14:59;;;;;;;0.85;0.60;;;8.10;99.90;;;;;;5046788;27;20032;-34
2023/10/15 01:17:37;;;;;;;0.93;0.43;;;8.20;99.90;;;;;;5091123;27;20035;-34
2023/10/15 01:20:07;;;;;;;0.73;0.60;;;8.20;99.90;;;;;;5052276;27;20025;-35
2023/10/15 01:22:32;;;;;;;0.98;0.50;;;8.20;99.90;;;;;;5088189;27;20079;-34
2023/10/15 01:25:09;;;;;;;1.55;0.75;;;8.20;99.90;;;;;;5062893;27;20044;-33
2023/10/15 01:27:36;;;;;;;0.73;0.73;;;8.20;99.90;;;;;;5082400;27;20039;-34
2023/10/15 01:30:02;;;;;;;0.95;0.70;;;8.20;99.90;;;;;;5067203;27;20135;-35
2023/10/15 01:32:31;;;;;;;0.95;0.50;;;8.20;99.90;;;;;;5070596;27;20119;-35
2023/10/15 01:34:59;;;;;;;0.82;0.47;;;8.20;99.90;;;;;;5078362;27;20021;-35
2023/10/15 01:37:25;;;;;;;1.15;0.52;;;8.20;99.90;;;;;;5060294;27;20609;-36
2023/10/15 01:40:17;;;;;;;0.68;0.50;;;8.20;99.90;;;;;;5091139;27;20092;-35
2023/10/15 01:42:46;;;;;;;2.05;0.80;;;8.20;99.90;;;;;;5065238;27;20011;-35
2023/10/15 01:50:16;;;;;;;0.90;0.47;;;8.20;99.90;;;;;;5088802;27;20037;-35
2023/10/15 01:52:42;;;;;;;1.60;0.65;;;8.10;99.90;;;;;;5049947;27;20031;-35
2023/10/15 01:55:13;;;;;;;3.28;0.73;;;8.20;99.90;;;;;;5032137;27;20029;-34
2023/10/15 01:57:39;;;;;;;1.02;0.73;;;8.10;99.90;;;;;;5048766;27;20033;-35
2023/10/15 02:00:12;;;;;;;1.80;0.63;;;8.10;99.90;;;;;;5100651;27;20028;-35
2023/10/15 02:02:42;;;;;;;1.40;0.80;;;8.10;99.90;;;;;;5049616;27;20429;-35
2023/10/15 02:05:25;;;;;;;1.48;0.60;;;8.20;99.90;;;;;;5100641;27;20035;-34
2023/10/15 02:07:51;;;;;;;1.30;0.77;;;8.20;99.90;;;;;;5049731;27;20036;-35
2023/10/15 02:10:16;;;;;;;1.75;0.52;;;8.20;99.90;;;;;;5099510;27;20469;-34
2023/10/15 02:12:51;;;;;;;0.73;0.55;;;8.20;99.90;;;;;;5043043;28;20056;-35
2023/10/15 02:15:22;;;;;;;2.38;1.15;;;8.20;99.90;;;;;;5084553;27;20019;-34
2023/10/15 02:17:51;;;;;;;2.03;0.63;;;8.20;99.90;;;;;;5146698;27;20110;-35
2023/10/15 02:23:07;;;;;;;1.92;1.00;;;8.30;99.90;;;;;;5145481;27;20045;-34
2023/10/15 02:25:36;;;;;;;1.00;0.57;;;8.30;99.90;;;;;;5080931;27;20019;-36
2023/10/15 02:28:04;;;;;;;1.48;0.57;;;8.30;99.90;;;;;;5146185;27;20030;-34
2023/10/15 02:30:32;;;;;;;2.15;0.75;;;8.30;99.90;;;;;;5081449;27;20083;-34
2023/10/15 02:33:01;;;;;;;1.63;0.60;;;8.30;99.90;;;;;;5146107;27;20075;-34
2023/10/15 02:35:31;;;;;;;1.42;0.60;;;8.30;99.90;;;;;;5080627;27;20037;-35
2023/10/15 02:37:58;;;;;;;2.22;0.80;;;8.30;99.90;;;;;;5145951;27;20811;-34
2023/10/15 02:40:36;;;;;;;2.90;1.58;;;8.30;99.90;;;;;;5089251;27;20466;-35
2023/10/15 02:43:06;;;;;;;0.70;0.60;;;8.40;99.90;;;;;;5022065;28;20392;-35
2023/10/15 02:45:35;;;;;;;0.85;0.50;;;8.40;99.90;;;;;;5090989;27;20022;-36
2023/10/15 02:48:09;;;;;;;0.90;0.52;;;8.30;99.90;;;;;;5048752;27;20077;-35
2023/10/15 02:50:35;;;;;;;3.42;0.80;;;8.30;99.90;;;;;;5091708;27;20465;-35
2023/10/15 02:53:04;;;;;;;1.05;0.60;;;8.30;99.90;;;;;;5054440;27;20043;-35
2023/10/15 02:55:47;;;;;;;1.00;0.60;;;8.30;99.90;;;;;;5080473;27;20027;-36
2023/10/15 02:58:16;;;;;;;0.57;0.35;;;8.20;99.90;;;;;;5054582;27;20028;-35
2023/10/15 03:00:42;;;;;;;0.90;0.50;;;8.20;99.90;;;;;;5080697;27;20031;-35
2023/10/15 03:03:08;;;;;;;1.08;0.50;;;8.20;99.90;;;;;;5066027;27;20040;-35
2023/10/15 03:05:39;;;;;;;1.95;0.65;;;8.20;99.90;;;;;;5068211;27;20018;-35
2023/10/15 03:08:07;;;;;;;1.35;0.47;;;8.10;99.90;;;;;;5075534;27;20093;-35
2023/10/15 03:10:46;;;;;;;0.70;0.45;;;8.10;99.90;;;;;;5059054;27;20032;-35
2023/10/15 03:13:15;;;;;;;1.00;0.43;;;8.10;99.90;;;;;;5077626;27;20126;-35
2023/10/15 03:15:50;;;;;;;1.08;0.50;;;8.10;99.90;;;;;;5057585;27;20432;-35
2023/10/15 03:18:23;;;;;;;1.48;0.40;;;8.10;99.90;;;;;;5083461;27;20028;-35
2023/10/15 03:21:08;;;;;;;0.80;0.55;;;8.00;99.90;;;;;;5056092;27;20040;-35
2023/10/15 03:23:34;;;;;;;0.80;0.45;;;8.00;99.90;;;;;;5078580;27;20033;-35
2023/10/15 03:25:59;;;;;;;0.70;0.40;;;8.00;99.90;;;;;;5056281;27;20561;-35
2023/10/15 03:28:25;;;;;;;0.90;0.60;;;8.00;99.90;;;;;;5091508;27;20029;-34
2023/10/15 03:30:54;;;;;;;0.85;0.47;;;8.00;99.90;;;;;;5048272;27;20121;-35
2023/10/15 03:33:30;;;;;;;0.68;0.35;;;8.10;99.90;;;;;;5098989;27;20029;-35
2023/10/15 03:35:56;;;;;;;0.35;0.30;;;8.10;99.90;;;;;;5047278;27;20064;-34
2023/10/15 03:38:23;;;;;;;1.35;0.52;;;8.00;99.90;;;;;;5099574;27;20055;-34
2023/10/15 03:40:50;;;;;;;0.60;0.50;;;8.10;99.90;;;;;;5045893;27;20029;-34
2023/10/15 03:43:20;;;;;;;0.85;0.43;;;8.00;99.90;;;;;;5100049;27;20726;-34
2023/10/15 03:45:52;;;;;;;0.95;0.40;;;8.00;99.90;;;;;;5041289;28;20052;-35
2023/10/15 03:48:21;;;;;;;1.48;0.40;;;8.00;99.90;;;;;;5104290;27;20335;-34
2023/10/15 03:50:57;;;;;;;1.98;0.50;;;8.00;99.90;;;;;;5041549;28;20052;-35
2023/10/15 03:53:31;;;;;;;1.15;1.00;;;8.00;99.90;;;;;;5106715;27;20021;-35
2023/10/15 03:55:58;;;;;;;1.33;0.50;;;8.00;99.90;;;;;;5113778;27;20086;-35
2023/10/15 03:58:25;;;;;;;1.10;0.50;;;8.10;99.90;;;;;;5079075;27;20063;-35
2023/10/15 04:01:02;;;;;;;0.98;0.63;;;8.10;99.90;;;;;;5145690;27;20042;-35
2023/10/15 04:03:35;;;;;;;1.55;0.88;;;8.10;99.90;;;;;;5118816;27;20431;-35
2023/10/15 04:06:01;;;;;;;2.55;0.98;;;8.10;99.90;;;;;;5040532;28;20121;-35
2023/10/15 04:08:31;;;;;;;1.02;0.63;;;8.10;99.90;;;;;;5102036;27;20446;-36
2023/10/15 04:10:57;;;;;;;3.13;0.80;;;8.10;99.90;;;;;;5043738;28;20037;-35
2023/10/15 04:13:26;;;;;;;4.30;1.00;;;8.10;99.90;;;;;;5095164;27;20090;-36
2023/10/15 04:15:55;;;;;;;3.15;0.80;;;8.00;99.90;;;;;;5056922;27;20081;-35
2023/10/15 04:18:24;;;;;;;1.50;0.45;;;7.90;99.90;;;;;;5085530;27;20026;-35
2023/10/15 04:20:54;;;;;;;1.42;0.70;;;7.70;99.90;;;;;;5066181;27;20029;-42
2023/10/15 04:23:32;;;;;;;1.05;0.40;;;7.60;99.90;;;;;;5077149;27;20119;-35
2023/10/15 04:26:14;;;;;;;0.60;0.35;;;7.50;99.90;;;;;;5067559;27;20032;-36
2023/10/15 04:28:43;;;;;;;1.23;0.52;;;7.50;99.90;;;;;;5085213;27;20046;-35
2023/10/15 04:31:22;;;;;;;0.63;0.40;;;7.50;99.90;;;;;;5065981;27;20062;-35
2023/10/15 04:33:52;;;;;;;1.08;0.25;;;7.50;99.90;;;;;;5083012;27;20030;-36
2023/10/15 04:36:18;;;;;;;0.57;0.22;;;7.60;99.90;;;;;;5066691;27;20056;-35
2023/10/15 04:38:45;;;;;;;0.30;0.30;;;7.60;99.90;;;;;;5071884;27;20027;-35
2023/10/15 04:41:21;;;;;;;0.55;0.40;;;7.60;99.90;;;;;;5079453;27;20055;-35
2023/10/15 04:43:47;;;;;;;0.57;0.30;;;7.60;99.90;;;;;;5066551;27;20425;-35
2023/10/15 04:46:26;;;;;;;0.38;0.30;;;7.70;99.90;;;;;;5084949;27;20048;-44
2023/10/15 04:48:51;;;;;;;1.15;0.35;;;7.70;99.90;;;;;;5062465;27;20476;-36
2023/10/15 04:51:18;;;;;;;1.13;0.50;;;7.70;99.90;;;;;;5088972;27;20029;-36
2023/10/15 04:53:52;;;;;;;0.35;0.30;;;7.70;99.90;;;;;;5050866;27;20021;-36
2023/10/15 04:56:18;;;;;;;1.02;0.40;;;7.70;99.90;;;;;;5064038;27;20450;-36
2023/10/15 04:58:43;;;;;;;1.33;0.40;;;7.70;99.90;;;;;;5049830;27;20026;-37
2023/10/15 05:01:09;;;;;;;1.67;0.47;;;7.60;99.90;;;;;;5102001;27;20025;-37
2023/10/15 05:03:47;;;;;;;0.80;0.35;;;7.60;99.90;;;;;;5047322;27;20025;-36
2023/10/15 05:06:13;;;;;;;1.67;0.40;;;7.50;99.90;;;;;;5098305;27;20017;-36
2023/10/15 05:08:40;;;;;;;0.50;0.40;;;7.50;99.90;;;;;;5043821;27;20033;-36
2023/10/15 05:11:10;;;;;;;0.40;0.40;;;7.50;99.90;;;;;;5080895;27;20023;-35
2023/10/15 05:13:42;;;;;;;0.77;0.47;;;7.40;99.90;;;;;;5147470;27;20030;-35
2023/10/15 05:16:10;;;;;;;1.65;0.60;;;7.40;99.90;;;;;;5081864;27;20033;-36
2023/10/15 05:18:36;;;;;;;1.25;0.68;;;7.30;99.90;;;;;;5148791;27;20054;-36
2023/10/15 05:21:01;;;;;;;2.15;0.60;;;7.30;99.90;;;;;;5080009;27;20508;-35
2023/10/15 05:23:28;;;;;;;0.70;0.55;;;7.20;99.90;;;;;;5148347;27;20129;-34
2023/10/15 05:25:55;;;;;;;0.90;0.50;;;7.20;99.90;;;;;;5092683;27;20117;-35
2023/10/15 05:28:20;;;;;;;1.75;0.52;;;7.10;99.90;;;;;;5136760;27;20085;-36
2023/10/15 05:30:46;;;;;;;1.33;0.60;;;7.10;99.90;;;;;;5106299;27;20017;-36
2023/10/15 05:33:12;;;;;;;1.52;0.60;;;7.10;99.90;;;;;;5123581;27;20166;-35
2023/10/15 05:35:40;;;;;;;1.45;0.60;;;7.10;99.90;;;;;;5118550;27;20037;-37
2023/10/15 05:38:09;;;;;;;1.33;0.50;;;7.10;99.90;;;;;;5111975;27;20071;-35
2023/10/15 05:40:38;;;;;;;1.65;0.50;;;7.10;99.90;;;;;;5128360;27;20633;-35
2023/10/15 05:43:10;;;;;;;0.70;0.50;;;7.10;99.90;;;;;;5103434;27;20101;-35
2023/10/15 05:45:35;;;;;;;1.23;0.60;;;7.10;99.90;;;;;;5135951;27;20481;-37
2023/10/15 05:48:01;;;;;;;2.60;0.73;;;7.10;99.90;;;;;;5092216;27;20045;-37
2023/10/15 05:50:27;;;;;;;1.67;0.65;;;7.10;99.90;;;;;;5140523;27;20030;-35
2023/10/15 05:52:52;;;;;;;0.50;0.40;;;7.20;99.90;;;;;;5089661;27;20281;-36
2023/10/15 05:55:19;;;;;;;0.50;0.50;;;7.20;99.90;;;;;;5113966;27;20070;-35
2023/10/15 05:57:46;;;;;;;0.40;0.40;;;7.10;99.90;;;;;;5089145;27;20680;-37
2023/10/15 06:00:18;;;;;;;0.40;0.40;;;7.20;99.90;;;;;;5147673;27;20023;-36
2023/10/15 06:02:56;;;;;;;0.40;0.40;;;7.20;99.90;;;;;;5080885;27;20022;-38
2023/10/15 06:05:21;;;;;;;0.63;0.43;;;7.10;99.90;;;;;;5146738;27;20101;-36
2023/10/15 06:07:48;;;;;;;0.50;0.50;;;7.10;99.90;;;;;;5080953;27;20064;-35
2023/10/15 06:10:15;;;;;;;2.17;0.60;;;7.10;99.90;;;;;;5146108;27;20483;-36
2023/10/15 06:12:41;;;;;;;1.63;0.50;;;7.10;99.90;;;;;;5082600;27;20025;-36
2023/10/15 06:15:09;;;;;;;0.40;0.40;;;7.20;99.90;;;;;;5146266;27;20057;-37
2023/10/15 06:17:35;;;;;;;0.80;0.40;;;7.20;99.90;;;;;;5093960;27;20043;-36
2023/10/15 06:20:24;;;;;;;1.23;0.50;;;7.20;99.90;;;;;;5134508;27;20029;-36
2023/10/15 06:22:49;;;;;;;1.98;0.98;;;7.10;99.90;;;;;;5092174;27;20029;-35
2023/10/15 06:25:18;;;;;;;1.23;0.82;;;7.10;99.90;;;;;;5137254;27;20023;-37
2023/10/15 06:27:44;;;;;;;1.40;0.80;;;7.10;99.90;;;;;;5102689;27;20132;-36
2023/10/15 06:30:14;;;;;;;0.63;0.60;;;7.10;99.90;;;;;;5125323;27;20019;-36
2023/10/15 06:32:47;;;;;;;1.20;0.80;;;7.10;99.90;;;;;;5111985;27;20236;-34
2023/10/15 06:35:20;;;;;;;1.10;0.60;;;7.10;99.90;;;;;;5120519;27;20027;-36
2023/10/15 06:37:50;;;;;;;1.65;0.60;;;7.10;99.90;;;;;;5115380;27;20119;-35
2023/10/15 06:40:16;;;;;;;0.73;0.60;;;7.10;99.90;;;;;;5113880;27;20057;-36
2023/10/15 06:42:43;;;;;;;0.70;0.60;;;7.10;99.90;;;;;;5126252;27;20075;-35
2023/10/15 06:45:10;;;;;;;1.38;0.75;;;7.20;99.90;;;;;;5101574;27;20023;-36
2023/10/15 06:47:36;;;;;;;1.38;0.82;;;7.20;99.90;;;;;;5137988;27;20031;-36
2023/10/15 06:50:06;;;;;;;0.82;0.80;;;7.30;99.90;;;;;;5088369;27;20039;-36
2023/10/15 06:52:37;;;;;;;2.33;1.10;;;7.30;99.90;;;;;;5138435;27;20108;-36
2023/10/15 06:55:04;;;;;;;1.95;0.70;;;7.40;99.90;;;;;;5066277;27;20025;-36
2023/10/15 06:57:29;;;;;;;0.60;0.60;;;7.40;99.90;;;;;;5048150;27;20033;-42
2023/10/15 06:59:55;;;;;;;2.30;0.80;;;7.50;99.90;;;;;;5066611;27;20075;-36
2023/10/15 07:02:28;;;;;;;2.30;1.00;;;7.50;99.90;;;;;;5145623;27;20378;-36
2023/10/15 07:04:58;;;;;;;0.70;0.50;;;7.60;99.90;;;;;;5079325;27;20061;-35
2023/10/15 07:07:24;;;;;;;1.27;1.00;;;7.60;99.90;;;;;;5145646;27;20039;-35
2023/10/15 07:09:52;;;;;;;4.00;1.40;;;7.60;99.90;;;;;;5079911;27;20552;-36
2023/10/15 07:12:17;;;;;;;2.45;0.98;;;7.70;99.90;;;;;;5145163;27;20107;-36
2023/10/15 07:14:43;;;;;;;2.30;1.10;;;7.60;99.90;;;;;;5082900;27;20550;-36
2023/10/15 07:17:09;;;;;;;2.05;0.82;;;7.70;99.90;;;;;;5142396;27;20470;-36
2023/10/15 07:19:38;;;;;;;1.42;0.80;;;7.70;99.90;;;;;;5096004;27;20186;-36
2023/10/15 07:22:04;;;;;;;2.25;0.70;;;7.80;99.90;;;;;;5131735;27;20118;-36
2023/10/15 07:24:33;;;;;;;0.90;0.70;;;7.90;99.90;;;;;;5108081;27;20029;-37
2023/10/15 07:27:00;;;;;;;1.00;0.60;;;8.00;99.90;;;;;;5119202;27;20099;-36
2023/10/15 07:29:28;;;;;;;1.92;0.77;;;8.10;99.90;;;;;;5117059;27;20138;-36
2023/10/15 07:31:53;;;;;;;1.83;0.77;;;8.10;99.90;;;;;;5109930;27;20026;-36
2023/10/15 07:34:19;;;;;;;3.45;0.70;;;8.10;99.90;;;;;;5129197;27;20396;-36
2023/10/15 07:36:45;;;;;;;1.67;0.80;;;8.10;99.90;;;;;;5095576;27;20051;-35
2023/10/15 07:39:11;;;;;;;1.70;0.88;;;8.20;99.90;;;;;;5137833;27;20424;-35
2023/10/15 07:41:37;;;;;;;2.80;0.85;;;8.20;99.90;;;;;;5086469;27;20163;-36
2023/10/15 07:44:03;;;;;;;0.88;0.57;;;8.20;99.90;;;;;;5136877;27;20434;-37
2023/10/15 07:46:33;;;;;;;1.25;0.90;;;8.20;99.90;;;;;;5087458;27;20061;-35
2023/10/15 07:49:00;;;;;;;1.30;0.60;;;8.20;99.90;;;;;;5145315;27;20109;-36
2023/10/15 07:51:27;;;;;;;0.65;0.60;;;8.20;99.90;;;;;;5105462;27;20020;-36
2023/10/15 07:53:53;;;;;;;1.23;0.80;;;8.20;99.90;;;;;;5041398;28;20033;-36
2023/10/15 07:56:18;;;;;;;1.60;0.65;;;8.30;99.90;;;;;;5105860;27;20038;-36
2023/10/15 07:58:44;;;;;;;1.98;0.68;;;8.30;99.90;;;;;;5041288;28;20414;-36
2023/10/15 08:01:10;;;;;;;1.63;0.57;;;8.30;99.90;;;;;;5060719;27;20017;-35
2023/10/15 08:03:36;;;;;;;1.25;0.70;;;8.30;99.90;;;;;;5139226;27;20034;-35
2023/10/15 08:06:02;;;;;;;1.08;0.63;;;8.30;99.90;;;;;;5100758;27;20032;-35
2023/10/15 08:08:30;;;;;;;1.52;0.57;;;8.30;99.90;;;;;;5124268;27;20034;-35
2023/10/15 08:10:56;;;;;;;1.67;0.57;;;8.40;99.90;;;;;;5112481;27;20787;-35
2023/10/15 08:13:22;;;;;;;1.42;0.60;;;8.40;99.90;;;;;;5113220;27;20105;-35
2023/10/15 08:15:47;;;;;;;0.95;0.70;;;8.50;99.90;;;;;;5125266;27;20022;-37
2023/10/15 08:18:13;;;;;;;1.92;0.60;;;8.60;99.90;;;;;;5099056;27;20058;-43
2023/10/15 08:20:39;;;;;;;2.05;0.63;;;8.60;99.90;;;;;;5138315;27;20114;-35
2023/10/15 08:23:05;;;;;;;1.48;0.63;;;8.70;99.90;;;;;;5085452;27;20110;-36
2023/10/15 08:25:33;;;;;;;2.65;0.80;;;8.70;99.90;;;;;;5137440;27;20015;-36
2023/10/15 08:27:59;;;;;;;2.65;0.80;;;8.70;99.90;;;;;;5085884;27;20035;-35
2023/10/15 08:30:25;;;;;;;3.17;1.00;;;8.70;99.90;;;;;;5143525;27;20022;-34
2023/10/15 08:32:51;;;;;;;2.70;0.82;;;8.70;99.90;;;;;;5079721;27;20109;-35
2023/10/15 08:35:16;;;;;;;1.42;0.90;;;8.70;99.90;;;;;;5144666;27;20027;-35
2023/10/15 08:37:46;;;;;;;1.77;0.82;;;8.60;99.90;;;;;;5078000;27;20057;-36
2023/10/15 08:40:19;;;;;;;1.42;0.63;;;8.50;99.90;;;;;;5144520;27;20081;-34
2023/10/15 08:42:59;;;;;;;2.20;0.77;;;8.40;99.90;;;;;;5079183;27;20145;-35
2023/10/15 08:45:26;;;;;;;1.88;0.63;;;8.40;99.90;;;;;;5144335;27;20023;-34
2023/10/15 08:47:53;;;;;;;1.75;0.90;;;8.40;99.90;;;;;;5081073;27;20029;-35
2023/10/15 08:50:22;;;;;;;1.40;0.60;;;8.40;99.90;;;;;;5144359;27;20513;-35
2023/10/15 08:52:53;;;;;;;1.05;0.52;;;8.50;99.90;;;;;;5090666;27;20115;-36
2023/10/15 08:55:22;;;;;;;4.03;0.70;;;8.60;99.90;;;;;;5112031;27;20587;-36
2023/10/15 08:57:54;;;;;;;1.95;0.60;;;8.70;99.90;;;;;;5089709;27;20373;-35
2023/10/15 09:00:28;;;;;;;1.67;0.80;;;8.60;99.90;;;;;;5058365;27;20068;-36
2023/10/15 09:02:56;;;;;;;1.33;0.80;;;8.60;99.90;;;;;;5087633;27;20027;-34
2023/10/15 09:05:22;;;;;;;2.33;0.85;;;8.60;99.90;;;;;;5063148;27;20082;-35
2023/10/15 09:07:51;;;;;;;0.40;0.40;;;8.60;99.90;;;;;;5074753;27;20027;-35
2023/10/15 09:10:17;;;;;;;0.60;0.45;;;8.50;99.90;;;;;;5074171;27;20025;-36
2023/10/15 09:12:43;;;;;;;1.08;0.60;;;8.50;99.90;;;;;;5063206;27;20081;-36
2023/10/15 09:15:15;;;;;;;1.60;0.47;;;8.50;99.90;;;;;;5087681;27;20436;-36
2023/10/15 09:18:02;;;;;;;;;;;8.50;99.90;;;;;;5055490;27;20025;-36
2023/10/15 09:20:33;;;;;;;3.22;0.70;;;8.50;99.90;;;;;;5081449;27;20275;-35
2023/10/15 09:23:01;;;;;;;2.20;0.60;;;8.60;99.90;;;;;;5059795;27;20040;-36
2023/10/15 09:25:28;;;;;;;0.77;0.60;;;8.70;99.90;;;;;;5089846;27;20372;-36
2023/10/15 09:27:54;;;;;;;2.20;0.55;;;8.90;99.90;;;;;;5049646;27;20039;-36
2023/10/15 09:30:27;;;;;;;1.83;0.80;;;9.00;99.90;;;;;;5101532;27;20065;-34
2023/10/15 09:32:54;;;;;;;1.33;0.60;;;9.10;99.90;;;;;;5050037;27;20023;-35
2023/10/15 09:35:21;;;;;;;1.50;0.70;;;9.10;99.90;;;;;;5101436;27;20116;-35
2023/10/15 09:37:50;;;;;;;1.88;0.57;;;9.20;99.90;;;;;;5049207;27;20103;-35
2023/10/15 09:40:19;;;;;;;1.42;0.57;;;9.30;99.90;;;;;;5113234;27;20545;-35
2023/10/15 09:42:47;;;;;;;0.95;0.63;;;9.40;99.90;;;;;;5148069;27;20091;-35
2023/10/15 09:45:18;;;;;;;2.20;0.40;;;9.50;99.90;;;;;;5081986;27;20018;-34
2023/10/15 09:47:52;;;;;;;2.00;0.60;;;9.70;99.90;;;;;;5147438;27;20031;-35
2023/10/15 09:50:25;;;;;;;2.53;0.70;;;9.80;99.90;;;;;;5080970;27;20021;-36
2023/10/15 09:53:01;;;;;;;3.97;0.60;;;9.90;99.90;;;;;;5148416;27;20552;-35
2023/10/15 09:55:31;;;;;;;1.80;0.60;;;9.90;99.90;;;;;;5094908;27;20105;-35
2023/10/15 09:58:01;;;;;;;1.50;0.70;;;9.90;99.90;;;;;;5148041;27;20095;-37
2023/10/15 10:00:46;;;;;;;1.02;0.50;;;9.90;99.90;;;;;;5081173;27;20022;-34
2023/10/15 10:03:48;;;;;;;3.05;0.68;;;9.90;99.90;;;;;;5147305;27;20025;-35
2023/10/15 10:06:36;;;;;;;1.80;0.57;;;9.80;99.90;;;;;;5097756;27;20025;-35
2023/10/15 10:09:38;;;;;;;2.58;0.50;;;9.80;99.90;;;;;;5047800;27;20060;-35
2023/10/15 10:12:07;;;;;;;1.75;0.70;;;9.80;99.90;;;;;;5082261;27;20138;-36
2023/10/15 10:14:44;;;;;;;1.52;0.70;;;9.80;99.90;;;;;;5111015;27;20032;-36
2023/10/15 10:17:12;;;;;;;2.65;0.70;;;9.70;99.90;;;;;;5088434;27;20077;-37
2023/10/15 10:19:39;;;;;;;1.25;0.68;;;9.70;99.90;;;;;;5049055;27;20029;-35
2023/10/15 10:22:28;;;;;;;2.10;0.63;;;9.70;99.90;;;;;;5076620;27;20030;-36
2023/10/15 10:24:59;;;;;;;2.35;0.55;;;9.60;99.90;;;;;;5136780;27;20014;-36
2023/10/15 10:27:26;;;;;;;3.28;0.80;;;9.60;99.90;;;;;;5095081;27;20053;-36
2023/10/15 10:29:52;;;;;;;3.42;0.73;;;9.60;99.90;;;;;;5138714;27;20635;-37
2023/10/15 10:32:20;;;;;;;2.45;0.77;;;9.60;99.90;;;;;;5088261;27;20011;-35
2023/10/15 10:35:26;;;;;;;2.15;0.77;;;9.60;99.90;;;;;;5139713;27;20051;-36
2023/10/15 10:38:26;;;;;;;1.63;0.52;;;9.70;99.90;;;;;;5090696;27;20115;-36
2023/10/15 10:40:52;;;;;;;1.85;0.80;;;9.70;99.90;;;;;;5117558;27;20112;-38
2023/10/15 10:43:20;;;;;;;1.38;0.65;;;9.60;99.90;;;;;;5110014;27;20037;-35
2023/10/15 10:45:53;;;;;;;1.85;0.50;;;9.60;99.90;;;;;;5128554;27;20033;-35
2023/10/15 10:48:33;;;;;;;1.13;0.50;;;9.60;99.90;;;;;;5103480;27;20034;-35
2023/10/15 10:51:11;;;;;;;1.85;0.80;;;9.60;99.90;;;;;;5126431;27;20018;-36
2023/10/15 10:53:54;;;;;;;1.70;0.52;;;9.60;99.90;;;;;;5109745;27;20059;-36
2023/10/15 10:56:20;;;;;;;0.63;0.50;;;9.60;99.90;;;;;;5111371;27;20526;-37
2023/10/15 10:58:49;;;;;;;1.02;0.40;;;9.60;99.90;;;;;;5146856;27;20030;-35
2023/10/15 11:01:15;;;;;;;4.30;0.73;;;9.60;99.90;;;;;;5130794;27;20022;-36
2023/10/15 11:03:41;;;;;;;2.05;0.63;;;9.70;99.90;;;;;;5098067;27;20022;-36
2023/10/15 11:06:07;;;;;;;1.60;0.60;;;9.70;99.90;;;;;;5138235;27;20071;-42
2023/10/15 11:08:33;;;;;;;2.17;0.60;;;9.80;99.90;;;;;;5087434;27;20035;-38
2023/10/15 11:10:59;;;;;;;1.25;0.50;;;9.90;99.90;;;;;;5138794;27;20185;-36
2023/10/15 11:13:27;;;;;;;2.15;0.90;;;10.00;99.90;;;;;;5086981;27;20052;-36
2023/10/15 11:15:55;;;;;;;2.58;0.90;;;10.10;99.90;;;;;;5146337;27;20086;-35
2023/10/15 11:18:25;;;;;;;2.92;0.98;;;10.10;99.90;;;;;;5104352;27;20104;-35
2023/10/15 11:20:56;;;;;;;1.92;0.60;;;10.20;99.90;;;;;;5041521;28;20021;-35
2023/10/15 11:23:26;;;;;;;0.83;0.63;;;10.30;99.90;;;;;;5106194;27;20550;-38
2023/10/15 11:25:54;;;;;;;2.00;0.77;;;10.30;99.90;;;;;;5040537;28;20256;-37
2023/10/15 11:28:20;;;;;;;0.88;0.40;;;10.30;99.90;;;;;;5106329;27;20171;-35
2023/10/15 11:30:46;;;;;;;1.48;0.50;;;10.40;99.90;;;;;;5040745;28;20142;-35
2023/10/15 11:33:12;;;;;;;3.67;0.70;;;10.40;99.90;;;;;;5095338;27;20022;-35
2023/10/15 11:35:40;;;;;;;2.83;0.80;;;10.50;99.90;;;;;;5050055;27;20112;-37
2023/10/15 11:38:09;;;;;;;3.17;1.00;;;10.50;99.90;;;;;;5084185;27;20050;-36
2023/10/15 11:40:38;;;;;;;3.80;1.02;;;10.50;99.90;;;;;;5059672;27;20028;-36
2023/10/15 11:43:17;;;;;;;3.05;0.93;;;10.60;99.90;;;;;;5075447;27;20538;-36
2023/10/15 11:45:46;;;;;;;2.47;0.70;;;10.70;99.90;;;;;;5061254;27;20506;-36
2023/10/15 11:48:13;;;;;;;3.35;1.08;;;10.80;99.90;;;;;;5072346;27;20035;-36
2023/10/15 11:50:44;;;;;;;2.65;0.73;;;10.80;99.90;;;;;;5071358;27;20037;-36
2023/10/15 11:53:17;;;;;;;1.92;0.68;;;10.80;99.90;;;;;;5064391;27;20118;-36
2023/10/15 11:55:52;;;;;;;1.92;0.90;;;10.80;99.90;;;;;;5107387;27;20082;-38
2023/10/15 11:58:19;;;;;;;4.07;0.85;;;10.80;99.90;;;;;;5121901;27;20021;-36
2023/10/15 12:00:49;;;;;;;3.55;0.90;;;10.90;99.90;;;;;;5102978;27;20033;-35
2023/10/15 12:03:16;;;;;;;4.18;0.80;;;10.90;99.90;;;;;;5131295;27;20014;-36
2023/10/15 12:05:42;;;;;;;1.98;0.70;;;11.00;99.90;;;;;;5093357;27;20037;-36
2023/10/15 12:08:12;;;;;;;2.88;0.60;;;11.00;99.90;;;;;;5136266;27;20040;-35
2023/10/15 12:10:42;;;;;;;1.70;0.70;;;11.10;99.90;;;;;;5085591;27;20435;-35
2023/10/15 12:13:12;;;;;;;2.55;0.75;;;11.10;99.90;;;;;;5137227;27;20025;-35
2023/10/15 12:15:38;;;;;;;2.03;0.85;;;11.10;99.90;;;;;;5085491;27;20395;-36
2023/10/15 12:18:04;;;;;;;3.10;0.70;;;11.10;99.90;;;;;;5142239;27;20023;-36
2023/10/15 12:20:29;;;;;;;2.60;0.90;;;11.00;99.90;;;;;;5080789;27;20798;-36
2023/10/15 12:22:55;;;;;;;2.58;0.85;;;11.00;99.90;;;;;;5144275;27;20071;-36
2023/10/15 12:25:21;;;;;;;3.08;0.80;;;11.00;99.90;;;;;;5078576;27;20076;-36
2023/10/15 12:27:47;;;;;;;4.68;0.80;;;10.90;99.90;;;;;;5144786;27;20621;-36
2023/10/15 12:30:28;;;;;;;3.47;1.00;;;10.90;99.90;;;;;;5082348;27;20032;-36
2023/10/15 12:33:00;;;;;;;3.65;0.90;;;10.90;99.90;;;;;;5023467;28;20039;-36
2023/10/15 12:35:27;;;;;;;2.70;0.90;;;10.90;99.90;;;;;;5101297;27;20053;-35
2023/10/15 12:38:02;;;;;;;2.80;0.65;;;10.90;99.90;;;;;;5045708;27;20072;-36
2023/10/15 12:40:38;;;;;;;2.92;0.90;;;10.90;99.90;;;;;;5100681;27;20025;-36
2023/10/15 12:43:08;;;;;;;1.63;0.63;;;10.90;99.90;;;;;;5043603;27;20153;-36
2023/10/15 12:45:34;;;;;;;1.90;0.70;;;11.00;99.90;;;;;;5096931;27;20106;-36
2023/10/15 12:48:01;;;;;;;1.83;0.63;;;11.10;99.90;;;;;;5054333;27;20049;-35
2023/10/15 12:50:27;;;;;;;1.85;0.73;;;11.30;99.90;;;;;;5083226;27;20015;-35
2023/10/15 12:52:56;;;;;;;3.00;0.70;;;11.40;99.90;;;;;;5067902;27;20032;-37
2023/10/15 12:55:23;;;;;;;0.90;0.50;;;11.50;99.90;;;;;;5060312;27;20105;-36
2023/10/15 12:57:53;;;;;;;1.75;0.82;;;11.60;99.90;;;;;;5042484;28;20036;-36
2023/10/15 13:00:21;;;;;;;2.83;0.77;;;11.60;99.90;;;;;;5073447;27;20023;-37
2023/10/15 13:02:51;;;;;;;2.85;0.85;;;11.60;99.90;;;;;;5103708;27;20550;-36
2023/10/15 13:05:18;;;;;;;2.75;0.70;;;11.70;99.90;;;;;;5135999;27;20164;-35
2023/10/15 13:07:43;;;;;;;0.90;0.45;;;11.70;99.90;;;;;;5095004;27;20126;-37
2023/10/15 13:10:09;;;;;;;2.22;0.70;;;11.80;99.90;;;;;;5139810;27;20495;-35
2023/10/15 13:12:38;;;;;;;4.63;0.98;;;11.80;99.90;;;;;;5088117;27;20035;-36
2023/10/15 13:15:07;;;;;;;1.52;0.60;;;11.80;99.90;;;;;;5141085;27;20046;-36